createdAt,value
2019-04-29T00:00:01.073Z,101747.20
2019-04-29T00:02:34.422Z,101753.39
2019-04-29T00:05:05.613Z,101745.39
2019-04-29T00:07:35.960Z,101737.40
2019-04-29T00:10:09.592Z,101741.63
2019-04-29T00:12:41.689Z,101738.57
2019-04-29T00:15:35.302Z,101737.47
2019-04-29T00:18:11.025Z,101743.74
2019-04-29T00:20:48.267Z,101740.30
2019-04-29T00:23:18.568Z,101740.45
2019-04-29T00:25:49.865Z,101745.39
2019-04-29T00:28:20.010Z,101734.34
2019-04-29T00:30:50.207Z,101732.54
2019-04-29T00:33:20.772Z,101734.34
2019-04-29T00:35:51.213Z,101744.38
2019-04-29T00:38:55.713Z,101737.79
2019-04-29T00:42:03.517Z,101735.28
2019-04-29T00:44:33.840Z,101738.73
2019-04-29T00:47:04.061Z,101736.45
2019-04-29T00:49:34.304Z,101737.01
2019-04-29T00:52:04.617Z,101735.13
2019-04-29T00:54:43.830Z,101734.73
2019-04-29T00:57:14.077Z,101736.38
2019-04-29T00:59:44.767Z,101738.41
2019-04-29T01:02:15.950Z,101736.02
2019-04-29T01:04:46.371Z,101735.77
2019-04-29T01:07:17.352Z,101734.91
2019-04-29T01:09:48.277Z,101734.59
2019-04-29T01:12:18.832Z,101733.50
2019-04-29T01:14:49.106Z,101736.08
2019-04-29T01:17:19.616Z,101740.63
2019-04-29T01:19:50.552Z,101732.91
2019-04-29T01:22:21.099Z,101731.41
2019-04-29T01:24:52.238Z,101728.82
2019-04-29T01:27:30.713Z,101727.02
2019-04-29T01:30:01.091Z,101729.77
2019-04-29T01:32:31.988Z,101734.23
2019-04-29T01:35:02.348Z,101728.95
2019-04-29T01:37:36.837Z,101729.81
2019-04-29T01:40:17.012Z,101721.81
2019-04-29T01:42:47.353Z,101725.61
2019-04-29T01:45:17.672Z,101722.55
2019-04-29T01:47:48.086Z,101725.13
2019-04-29T01:50:19.319Z,101724.58
2019-04-29T01:52:51.066Z,101716.97
2019-04-29T01:55:21.345Z,101714.23
2019-04-29T01:57:51.692Z,101714.57
2019-04-29T02:00:22.531Z,101714.02
2019-04-29T02:02:54.025Z,101716.52
2019-04-29T02:05:24.411Z,101719.34
2019-04-29T02:07:54.657Z,101710.41
2019-04-29T02:10:32.804Z,101716.52
2019-04-29T02:13:03.478Z,101709.69
2019-04-29T02:15:34.280Z,101724.36
2019-04-29T02:18:06.839Z,101722.89
2019-04-29T02:20:37.308Z,101718.42
2019-04-29T02:23:24.168Z,101721.64
2019-04-29T02:25:54.936Z,101726.73
2019-04-29T02:28:25.589Z,101718.34
2019-04-29T02:30:59.939Z,101726.01
2019-04-29T02:33:30.125Z,101720.45
2019-04-29T02:36:00.359Z,101727.34
2019-04-29T02:38:55.732Z,101725.23
2019-04-29T02:41:38.104Z,101723.59
2019-04-29T02:44:10.033Z,101724.30
2019-04-29T02:46:40.361Z,101720.30
2019-04-29T02:49:10.567Z,101722.48
2019-04-29T02:51:47.793Z,101720.77
2019-04-29T02:54:18.045Z,101716.16
2019-04-29T02:56:59.830Z,101720.86
2019-04-29T02:59:34.585Z,101721.33
2019-04-29T03:02:23.316Z,101724.94
2019-04-29T03:05:11.684Z,101720.47
2019-04-29T03:07:42.735Z,101727.13
2019-04-29T03:10:13.204Z,101720.38
2019-04-29T03:12:43.738Z,101717.63
2019-04-29T03:15:21.096Z,101720.12
2019-04-29T03:17:51.367Z,101718.66
2019-04-29T03:20:30.433Z,101720.22
2019-04-29T03:23:08.707Z,101721.94
2019-04-29T03:25:40.116Z,101725.00
2019-04-29T03:28:10.797Z,101732.44
2019-04-29T03:30:42.125Z,101729.39
2019-04-29T03:33:12.767Z,101723.58
2019-04-29T03:35:43.090Z,101720.05
2019-04-29T03:38:13.427Z,101712.59
2019-04-29T03:40:45.422Z,101708.43
2019-04-29T03:43:15.815Z,101710.48
2019-04-29T03:45:47.115Z,101706.79
2019-04-29T03:48:17.619Z,101712.91
2019-04-29T03:50:49.040Z,101711.40
2019-04-29T03:53:19.896Z,101714.91
2019-04-29T03:55:52.457Z,101707.48
2019-04-29T03:58:23.186Z,101708.34
2019-04-29T04:00:59.654Z,101706.53
2019-04-29T04:03:34.390Z,101711.48
2019-04-29T04:06:26.518Z,101711.09
2019-04-29T04:09:11.171Z,101702.23
2019-04-29T04:11:41.783Z,101682.77
2019-04-29T04:14:12.759Z,101682.60
2019-04-29T04:17:20.412Z,101691.55
2019-04-29T04:19:50.476Z,101704.89
2019-04-29T04:22:21.033Z,101704.34
2019-04-29T04:24:53.005Z,101707.84
2019-04-29T04:27:23.205Z,101716.07
2019-04-29T04:29:53.518Z,101719.90
2019-04-29T04:32:24.089Z,101728.47
2019-04-29T04:34:54.367Z,101734.03
2019-04-29T04:37:24.567Z,101735.87
2019-04-29T04:39:55.414Z,101727.69
2019-04-29T04:42:29.843Z,101722.36
2019-04-29T04:44:58.620Z,101713.23
2019-04-29T04:47:28.941Z,101712.84
2019-04-29T04:49:59.636Z,101719.05
2019-04-29T04:52:30.530Z,101718.01
2019-04-29T04:55:00.808Z,101717.48
2019-04-29T04:57:31.084Z,101712.83
2019-04-29T05:00:01.791Z,101722.02
2019-04-29T05:02:32.418Z,101730.97
2019-04-29T05:05:02.672Z,101731.22
2019-04-29T05:07:34.004Z,101726.27
2019-04-29T05:10:04.305Z,101721.31
2019-04-29T05:12:34.578Z,101726.25
2019-04-29T05:15:05.846Z,101724.27
2019-04-29T05:17:36.915Z,101720.00
2019-04-29T05:20:07.392Z,101710.13
2019-04-29T05:22:37.664Z,101708.08
2019-04-29T05:25:08.252Z,101719.70
2019-04-29T05:27:38.883Z,101732.36
2019-04-29T05:30:09.155Z,101738.08
2019-04-29T05:32:44.914Z,101723.01
2019-04-29T05:35:16.764Z,101725.89
2019-04-29T05:37:56.943Z,101734.84
2019-04-29T05:40:38.325Z,101738.92
2019-04-29T05:43:10.918Z,101734.83
2019-04-29T05:45:48.144Z,101733.58
2019-04-29T05:48:19.055Z,101744.83
2019-04-29T05:50:54.978Z,101743.25
2019-04-29T05:53:28.498Z,101742.37
2019-04-29T05:56:00.105Z,101744.20
2019-04-29T05:58:32.875Z,101746.61
2019-04-29T06:01:06.667Z,101750.00
2019-04-29T06:03:37.746Z,101751.33
2019-04-29T06:06:08.751Z,101756.88
2019-04-29T06:08:39.539Z,101765.28
2019-04-29T06:11:10.760Z,101759.63
2019-04-29T06:13:43.177Z,101749.34
2019-04-29T06:16:20.976Z,101736.83
2019-04-29T06:18:59.665Z,101742.69
2019-04-29T06:21:29.641Z,101744.12
2019-04-29T06:24:04.190Z,101751.43
2019-04-29T06:26:36.457Z,101762.88
2019-04-29T06:29:10.673Z,101775.95
2019-04-29T06:31:42.761Z,101773.47
2019-04-29T06:34:14.950Z,101772.20
2019-04-29T06:36:46.551Z,101769.18
2019-04-29T06:39:21.681Z,101771.47
2019-04-29T06:41:54.804Z,101764.95
2019-04-29T06:44:27.955Z,101761.55
2019-04-29T06:47:00.637Z,101758.09
2019-04-29T06:49:32.479Z,101761.63
2019-04-29T06:52:04.867Z,101759.83
2019-04-29T06:54:36.574Z,101756.28
2019-04-29T06:57:07.047Z,101756.50
2019-04-29T06:59:38.078Z,101764.78
2019-04-29T07:02:09.407Z,101760.60
2019-04-29T07:04:41.317Z,101768.53
2019-04-29T07:07:13.236Z,101772.30
2019-04-29T07:09:46.931Z,101769.25
2019-04-29T07:12:17.317Z,101772.30
2019-04-29T07:14:48.191Z,101773.39
2019-04-29T07:17:19.567Z,101769.48
2019-04-29T07:19:50.012Z,101774.03
2019-04-29T07:22:25.595Z,101771.11
2019-04-29T07:24:53.270Z,101783.38
2019-04-29T07:27:26.674Z,101770.34
2019-04-29T07:30:01.898Z,101766.23
2019-04-29T07:32:36.300Z,101767.64
2019-04-29T07:35:09.837Z,101763.75
2019-04-29T07:37:41.099Z,101770.48
2019-04-29T07:40:12.604Z,101767.81
2019-04-29T07:42:43.031Z,101778.64
2019-04-29T07:45:44.289Z,101772.63
2019-04-29T07:48:16.374Z,101777.72
2019-04-29T07:50:49.541Z,101781.37
2019-04-29T07:53:20.965Z,101786.95
2019-04-29T07:55:55.064Z,101783.54
2019-04-29T07:58:28.449Z,101781.91
2019-04-29T08:01:04.287Z,101787.55
2019-04-29T08:03:36.296Z,101783.48
2019-04-29T08:06:08.954Z,101784.27
2019-04-29T08:08:54.360Z,101789.61
2019-04-29T08:11:16.280Z,101784.12
2019-04-29T08:13:51.307Z,101785.97
2019-04-29T08:16:25.476Z,101783.83
2019-04-29T08:18:57.713Z,101778.11
2019-04-29T08:21:30.080Z,101777.18
2019-04-29T08:24:02.249Z,101778.82
2019-04-29T08:26:38.189Z,101781.22
2019-04-29T08:29:07.627Z,101784.74
2019-04-29T08:31:38.746Z,101782.11
2019-04-29T08:34:11.146Z,101790.58
2019-04-29T08:36:42.182Z,101794.77
2019-04-29T08:39:13.299Z,101787.59
2019-04-29T08:41:44.340Z,101789.25
2019-04-29T08:44:39.872Z,101796.55
2019-04-29T08:47:16.428Z,101786.89
2019-04-29T08:49:47.036Z,101794.49
2019-04-29T08:52:17.199Z,101797.76
2019-04-29T08:54:50.754Z,101796.70
2019-04-29T08:57:20.953Z,101799.70
2019-04-29T08:59:51.204Z,101794.20
2019-04-29T09:02:35.014Z,101789.75
2019-04-29T09:05:02.259Z,101790.94
2019-04-29T09:07:33.648Z,101802.18
2019-04-29T09:10:03.997Z,101798.63
2019-04-29T09:12:35.458Z,101807.25
2019-04-29T09:15:06.244Z,101807.25
2019-04-29T09:17:36.415Z,101806.70
2019-04-29T09:20:07.748Z,101797.59
2019-04-29T09:22:40.614Z,101800.61
2019-04-29T09:25:35.870Z,101806.34
2019-04-29T09:28:15.070Z,101806.71
2019-04-29T09:30:43.939Z,101809.14
2019-04-29T09:33:14.387Z,101808.02
2019-04-29T09:35:45.031Z,101808.02
2019-04-29T09:38:15.452Z,101803.08
2019-04-29T09:41:08.343Z,101806.00
2019-04-29T09:43:47.896Z,101806.29
2019-04-29T09:46:23.063Z,101802.57
2019-04-29T09:48:54.220Z,101804.38
2019-04-29T09:51:27.816Z,101805.98
2019-04-29T09:53:56.955Z,101807.45
2019-04-29T09:56:27.437Z,101814.29
2019-04-29T09:59:26.603Z,101815.23
2019-04-29T10:02:12.479Z,101813.22
2019-04-29T10:04:56.397Z,101826.19
2019-04-29T10:07:22.878Z,101820.38
2019-04-29T10:09:57.464Z,101812.30
2019-04-29T10:12:33.101Z,101821.50
2019-04-29T10:15:04.389Z,101821.70
2019-04-29T10:17:45.822Z,101817.20
2019-04-29T10:20:30.482Z,101822.73
2019-04-29T10:23:01.379Z,101818.02
2019-04-29T10:25:32.103Z,101814.02
2019-04-29T10:28:03.639Z,101815.61
2019-04-29T10:30:34.607Z,101812.91
2019-04-29T10:33:05.489Z,101817.66
2019-04-29T10:35:55.403Z,101811.32
2019-04-29T10:38:25.613Z,101816.70
2019-04-29T10:41:05.924Z,101813.33
2019-04-29T10:43:55.625Z,101810.67
2019-04-29T10:46:54.405Z,101809.70
2019-04-29T10:49:29.999Z,101804.14
2019-04-29T10:52:03.008Z,101798.88
2019-04-29T10:54:34.573Z,101800.11
2019-04-29T10:57:04.979Z,101804.99
2019-04-29T10:59:40.807Z,101801.64
2019-04-29T11:02:23.293Z,101809.41
2019-04-29T11:04:55.034Z,101809.09
2019-04-29T11:07:33.287Z,101805.34
2019-04-29T11:10:24.001Z,101796.90
2019-04-29T11:12:42.858Z,101800.47
2019-04-29T11:15:15.354Z,101806.11
2019-04-29T11:17:46.416Z,101801.10
2019-04-29T11:20:21.430Z,101794.59
2019-04-29T11:22:57.144Z,101800.76
2019-04-29T11:25:51.162Z,101800.32
2019-04-29T11:28:19.499Z,101806.70
2019-04-29T11:30:50.520Z,101799.92
2019-04-29T11:33:35.632Z,101802.00
2019-04-29T11:36:09.204Z,101795.13
2019-04-29T11:38:40.394Z,101792.27
2019-04-29T11:41:12.189Z,101792.34
2019-04-29T11:43:42.674Z,101796.03
2019-04-29T11:46:14.396Z,101791.08
2019-04-29T11:48:45.517Z,101794.26
2019-04-29T11:51:22.937Z,101792.33
2019-04-29T11:53:58.456Z,101792.66
2019-04-29T11:56:29.451Z,101778.81
2019-04-29T11:59:12.471Z,101784.36
2019-04-29T12:01:55.319Z,101789.14
2019-04-29T12:04:34.700Z,101778.50
2019-04-29T12:07:06.179Z,101791.66
2019-04-29T12:09:36.590Z,101791.18
2019-04-29T12:12:08.050Z,101799.85
2019-04-29T12:14:48.068Z,101797.41
2019-04-29T12:17:40.213Z,101791.44
2019-04-29T12:20:23.496Z,101793.02
2019-04-29T12:22:53.633Z,101799.80
2019-04-29T12:25:27.629Z,101803.80
2019-04-29T12:28:01.577Z,101792.02
2019-04-29T12:30:36.417Z,101796.52
2019-04-29T12:33:12.233Z,101798.15
2019-04-29T12:36:02.868Z,101796.20
2019-04-29T12:38:52.261Z,101796.72
2019-04-29T12:42:00.654Z,101791.46
2019-04-29T12:44:35.410Z,101790.02
2019-04-29T12:47:26.146Z,101790.55
2019-04-29T12:50:42.046Z,101785.34
2019-04-29T12:52:28.789Z,101785.22
2019-04-29T12:55:12.982Z,101790.95
2019-04-29T12:57:33.329Z,101786.50
2019-04-29T13:00:07.604Z,101782.37
2019-04-29T13:02:55.581Z,101782.76
2019-04-29T13:05:57.142Z,101781.10
2019-04-29T13:08:44.160Z,101782.52
2019-04-29T13:11:35.996Z,101777.81
2019-04-29T13:14:02.498Z,101778.61
2019-04-29T13:16:55.321Z,101773.52
2019-04-29T13:19:32.198Z,101767.03
2019-04-29T13:22:02.407Z,101764.47
2019-04-29T13:24:32.667Z,101769.44
2019-04-29T13:27:15.713Z,101767.31
2019-04-29T13:29:37.425Z,101765.77
2019-04-29T13:32:08.370Z,101758.98
2019-04-29T13:34:41.483Z,101764.22
2019-04-29T13:37:18.840Z,101760.72
2019-04-29T13:39:45.180Z,101765.72
2019-04-29T13:42:16.099Z,101756.76
2019-04-29T13:45:05.374Z,101761.11
2019-04-29T13:47:29.333Z,101753.03
2019-04-29T13:50:17.114Z,101750.27
2019-04-29T13:52:35.615Z,101752.36
2019-04-29T13:55:17.157Z,101749.77
2019-04-29T13:57:38.618Z,101752.30
2019-04-29T14:00:36.247Z,101753.04
2019-04-29T14:03:18.029Z,101752.87
2019-04-29T14:05:48.857Z,101748.94
2019-04-29T14:08:19.415Z,101747.42
2019-04-29T14:10:51.077Z,101752.55
2019-04-29T14:13:21.956Z,101752.13
2019-04-29T14:15:52.725Z,101752.63
2019-04-29T14:18:23.212Z,101748.52
2019-04-29T14:20:53.807Z,101745.33
2019-04-29T14:23:24.435Z,101746.84
2019-04-29T14:25:55.245Z,101740.34
2019-04-29T14:28:26.655Z,101747.31
2019-04-29T14:30:57.322Z,101747.74
2019-04-29T14:33:33.168Z,101749.45
2019-04-29T14:36:07.443Z,101752.73
2019-04-29T14:38:40.489Z,101751.73
2019-04-29T14:41:09.806Z,101747.56
2019-04-29T14:43:50.627Z,101757.58
2019-04-29T14:46:45.406Z,101742.69
2019-04-29T14:49:41.268Z,101746.58
2019-04-29T14:52:13.624Z,101753.20
2019-04-29T14:54:44.986Z,101748.23
2019-04-29T14:57:18.467Z,101744.13
2019-04-29T14:59:49.576Z,101745.08
2019-04-29T15:02:23.037Z,101742.62
2019-04-29T15:04:53.778Z,101747.53
2019-04-29T15:07:25.231Z,101748.89
2019-04-29T15:09:57.315Z,101746.92
2019-04-29T15:12:51.983Z,101747.70
2019-04-29T15:15:44.380Z,101751.38
2019-04-29T15:18:46.149Z,101738.46
2019-04-29T15:21:08.509Z,101739.88
2019-04-29T15:23:39.629Z,101739.08
2019-04-29T15:26:11.924Z,101747.91
2019-04-29T15:28:52.803Z,101747.93
2019-04-29T15:31:24.266Z,101746.37
2019-04-29T15:33:55.148Z,101747.45
2019-04-29T15:36:25.790Z,101752.81
2019-04-29T15:39:08.889Z,101749.80
2019-04-29T15:41:31.039Z,101746.61
2019-04-29T15:44:07.796Z,101753.31
2019-04-29T15:46:45.597Z,101746.92
2019-04-29T15:49:04.983Z,101752.02
2019-04-29T15:51:35.830Z,101747.70
2019-04-29T15:54:09.331Z,101748.20
2019-04-29T15:56:39.797Z,101744.31
2019-04-29T15:59:10.443Z,101751.83
2019-04-29T16:01:41.784Z,101748.15
2019-04-29T16:04:20.961Z,101748.28
2019-04-29T16:07:17.041Z,101746.33
2019-04-29T16:09:51.956Z,101751.44
2019-04-29T16:12:27.548Z,101751.62
2019-04-29T16:14:57.896Z,101756.39
2019-04-29T16:17:31.923Z,101757.08
2019-04-29T16:20:00.951Z,101756.08
2019-04-29T16:22:31.326Z,101750.69
2019-04-29T16:25:04.890Z,101754.02
2019-04-29T16:27:41.701Z,101752.53
2019-04-29T16:30:11.446Z,101753.88
2019-04-29T16:32:42.193Z,101757.41
2019-04-29T16:35:17.928Z,101765.25
2019-04-29T16:37:46.349Z,101762.29
2019-04-29T16:40:17.197Z,101764.27
2019-04-29T16:43:04.062Z,101759.11
2019-04-29T16:45:51.599Z,101758.38
2019-04-29T16:48:20.569Z,101769.61
2019-04-29T16:50:53.887Z,101769.33
2019-04-29T16:53:24.077Z,101772.97
2019-04-29T16:55:54.810Z,101769.83
2019-04-29T16:58:25.127Z,101775.75
2019-04-29T17:00:57.067Z,101779.08
2019-04-29T17:03:28.073Z,101785.07
2019-04-29T17:05:58.252Z,101785.81
2019-04-29T17:08:37.492Z,101778.70
2019-04-29T17:11:19.602Z,101785.06
2019-04-29T17:13:49.986Z,101786.49
2019-04-29T17:16:20.770Z,101784.98
2019-04-29T17:18:51.014Z,101792.85
2019-04-29T17:21:22.309Z,101795.09
2019-04-29T17:23:52.673Z,101791.75
2019-04-29T17:26:25.228Z,101792.64
2019-04-29T17:29:37.365Z,101793.13
2019-04-29T17:32:01.748Z,101798.14
2019-04-29T17:34:56.818Z,101793.19
2019-04-29T17:37:06.555Z,101796.05
2019-04-29T17:39:37.306Z,101793.78
2019-04-29T17:42:07.752Z,101791.33
2019-04-29T17:44:44.166Z,101792.13
2019-04-29T17:47:42.604Z,101794.16
2019-04-29T17:50:30.502Z,101792.50
2019-04-29T17:52:59.246Z,101800.88
2019-04-29T17:55:56.302Z,101802.14
2019-04-29T17:58:35.837Z,101792.61
2019-04-29T18:01:28.311Z,101805.28
2019-04-29T18:04:16.675Z,101794.10
2019-04-29T18:07:11.997Z,101796.27
2019-04-29T18:09:47.506Z,101802.47
2019-04-29T18:12:22.397Z,101796.72
2019-04-29T18:14:55.082Z,101799.07
2019-04-29T18:17:36.128Z,101798.36
2019-04-29T18:20:33.033Z,101801.38
2019-04-29T18:23:19.142Z,101801.01
2019-04-29T18:25:54.838Z,101802.46
2019-04-29T18:28:25.620Z,101803.95
2019-04-29T18:30:57.922Z,101804.24
2019-04-29T18:33:30.398Z,101800.91
2019-04-29T18:36:04.572Z,101802.98
2019-04-29T18:38:34.663Z,101805.23
2019-04-29T18:41:07.104Z,101801.56
2019-04-29T18:43:37.803Z,101814.29
2019-04-29T18:46:12.524Z,101812.16
2019-04-29T18:48:41.421Z,101809.30
2019-04-29T18:51:12.989Z,101803.83
2019-04-29T18:53:47.157Z,101804.59
2019-04-29T18:56:17.937Z,101811.58
2019-04-29T18:58:50.367Z,101810.38
2019-04-29T19:01:28.561Z,101815.17
2019-04-29T19:04:11.520Z,101819.98
2019-04-29T19:06:40.532Z,101819.98
2019-04-29T19:09:18.503Z,101820.09
2019-04-29T19:11:46.282Z,101818.85
2019-04-29T19:14:20.554Z,101828.41
2019-04-29T19:16:52.818Z,101826.59
2019-04-29T19:19:25.221Z,101832.64
2019-04-29T19:21:56.045Z,101833.60
2019-04-29T19:24:27.550Z,101836.75
2019-04-29T19:27:00.554Z,101836.75
2019-04-29T19:29:31.385Z,101847.75
2019-04-29T19:32:02.487Z,101847.75
2019-04-29T19:34:42.327Z,101845.07
2019-04-29T19:37:05.487Z,101847.30
2019-04-29T19:39:36.249Z,101847.30
2019-04-29T19:42:07.382Z,101843.72
2019-04-29T19:44:38.534Z,101836.17
2019-04-29T19:47:10.923Z,101841.52
2019-04-29T19:49:44.704Z,101841.52
2019-04-29T19:52:18.758Z,101840.56
2019-04-29T19:54:47.938Z,101835.69
2019-04-29T19:57:21.748Z,101841.22
2019-04-29T19:59:54.290Z,101841.22
2019-04-29T20:02:48.002Z,101845.73
2019-04-29T20:05:31.334Z,101845.73
2019-04-29T20:08:00.741Z,101851.15
2019-04-29T20:10:36.591Z,101849.52
2019-04-29T20:13:03.806Z,101845.03
2019-04-29T20:15:38.086Z,101836.67
2019-04-29T20:18:40.435Z,101832.58
2019-04-29T20:21:28.334Z,101832.58
2019-04-29T20:23:54.609Z,101837.49
2019-04-29T20:26:29.594Z,101833.20
2019-04-29T20:28:58.397Z,101835.82
2019-04-29T20:31:35.347Z,101838.86
2019-04-29T20:34:08.198Z,101838.48
2019-04-29T20:36:42.848Z,101833.52
2019-04-29T20:39:15.638Z,101833.08
2019-04-29T20:41:47.034Z,101838.42
2019-04-29T20:44:16.620Z,101832.71
2019-04-29T20:47:12.947Z,101839.97
2019-04-29T20:49:19.030Z,101839.72
2019-04-29T20:51:52.508Z,101839.81
2019-04-29T20:54:25.744Z,101842.64
2019-04-29T20:57:04.946Z,101840.11
2019-04-29T20:59:31.653Z,101840.07
2019-04-29T21:02:11.996Z,101848.47
2019-04-29T21:04:45.742Z,101851.53
2019-04-29T21:07:10.078Z,101857.70
2019-04-29T21:09:43.093Z,101859.09
2019-04-29T21:12:25.476Z,101860.36
2019-04-29T21:14:59.505Z,101860.06
2019-04-29T21:17:31.954Z,101862.66
2019-04-29T21:20:02.115Z,101864.17
2019-04-29T21:22:32.750Z,101854.66
2019-04-29T21:25:03.227Z,101860.95
2019-04-29T21:27:35.211Z,101855.23
2019-04-29T21:30:07.379Z,101863.50
2019-04-29T21:32:39.051Z,101860.59
2019-04-29T21:35:31.887Z,101860.51
2019-04-29T21:38:26.003Z,101864.13
2019-04-29T21:41:02.030Z,101862.31
2019-04-29T21:43:35.460Z,101857.67
2019-04-29T21:46:05.838Z,101862.06
2019-04-29T21:48:37.442Z,101861.53
2019-04-29T21:51:11.149Z,101866.63
2019-04-29T21:53:40.445Z,101864.84
2019-04-29T21:56:11.653Z,101865.17
2019-04-29T21:58:41.954Z,101866.80
2019-04-29T22:01:12.351Z,101871.66
2019-04-29T22:03:43.664Z,101862.25
2019-04-29T22:06:14.157Z,101865.00
2019-04-29T22:08:45.230Z,101862.62
2019-04-29T22:11:17.451Z,101860.02
2019-04-29T22:13:47.621Z,101864.69
2019-04-29T22:16:18.176Z,101866.65
2019-04-29T22:18:52.069Z,101856.30
2019-04-29T22:21:23.225Z,101860.41
2019-04-29T22:23:57.598Z,101857.68
2019-04-29T22:26:28.172Z,101858.38
2019-04-29T22:29:03.260Z,101855.95
2019-04-29T22:31:33.674Z,101851.90
2019-04-29T22:34:02.908Z,101852.56
2019-04-29T22:36:33.383Z,101847.70
2019-04-29T22:39:06.239Z,101842.26
2019-04-29T22:41:59.102Z,101847.17
2019-04-29T22:44:29.928Z,101841.33
2019-04-29T22:47:00.134Z,101849.98
2019-04-29T22:49:30.948Z,101848.90
2019-04-29T22:52:02.355Z,101849.09
2019-04-29T22:54:35.348Z,101848.06
2019-04-29T22:57:06.731Z,101854.25
2019-04-29T22:59:37.307Z,101845.79
2019-04-29T23:02:07.893Z,101845.98
2019-04-29T23:04:38.049Z,101842.34
2019-04-29T23:07:09.110Z,101846.72
2019-04-29T23:09:41.632Z,101836.07
2019-04-29T23:12:14.751Z,101841.27
2019-04-29T23:14:44.387Z,101840.42
2019-04-29T23:17:15.808Z,101836.73
2019-04-29T23:19:50.720Z,101840.25
2019-04-29T23:22:32.956Z,101838.23
2019-04-29T23:25:29.807Z,101839.81
2019-04-29T23:27:58.151Z,101837.16
2019-04-29T23:30:28.988Z,101836.67
2019-04-29T23:32:59.909Z,101836.63
2019-04-29T23:35:30.250Z,101838.61
2019-04-29T23:38:04.365Z,101833.35
2019-04-29T23:40:33.032Z,101840.08
2019-04-29T23:43:03.444Z,101834.76
2019-04-29T23:45:35.121Z,101837.56
2019-04-29T23:48:05.703Z,101839.16
2019-04-29T23:50:36.086Z,101834.30
2019-04-29T23:53:06.265Z,101827.72
2019-04-29T23:55:36.524Z,101831.72
2019-04-29T23:58:20.998Z,101824.21
